Berg en Dal, Netherlands
Current Conditions -  °F | °C
As of 12:25 AM on Thursday 23 Oct 2014 (Local Time) from EHVK Reporting Station
Scattered Clouds Scattered Clouds  
Wind Chill: 39°   Ceiling: Unl
Heat Index: 43°   Visibility: 6mi
Dew Point: 43°   Wind: 6mph
Humidity: 100%   Direction: 240°WSW
Pressure: 30.18"   Gusts: NA
Location:  51.82°N, 5.92°E
Report Text: EHVK 222225Z AUTO 24005KT 9999 SCT047 06/06 Q1022 BLU
Loading
Personal Weather Stations






























Interactive Weather Map
Tropical Storm Tracking
New forecast layout! Learn more

10-Day Weather Forecast

Advertisements
Track Severe Weather on mobile